Saint Maries, Idaho
Current Conditions -  °F | °C
As of 11:35 AM on Thursday 27 Nov 2014 (Local Time) from KCOE Reporting Station
Overcast Overcast  
Wind Chill: 54°   Ceiling: 6000
Heat Index: 54°   Visibility: 10mi
Dew Point: 43°   Wind: 16mph
Humidity: 67%   Direction: 230°SW
Pressure: 29.85"   Gusts: 21mph
Location:  47.31°N, 116.56°W
Report Text: KCOE 271935Z AUTO 23014G18KT 10SM BKN060 OVC070 12/06 A2985 RMK AO1
Loading
Personal Weather Stations






























Interactive Weather Map New forecast layout! Learn more

10-Day Weather Forecast

Advertisements
Track Severe Weather on mobile